sensor_id;sensor_type;location;lat;lon;timestamp;pressure;altitude;pressure_sealevel;temperature;humidity
66430;BME280;53242;51.694;10.006;2023-06-19T00:01:19;99127.53;;;21.85;46.02
66430;BME280;53242;51.694;10.006;2023-06-19T00:03:42;99121.34;;;21.90;45.95
66430;BME280;53242;51.694;10.006;2023-06-19T00:06:05;99119.94;;;21.98;45.88
66430;BME280;53242;51.694;10.006;2023-06-19T00:08:28;99122.06;;;22.01;45.92
66430;BME280;53242;51.694;10.006;2023-06-19T00:10:50;99111.13;;;21.92;45.57
66430;BME280;53242;51.694;10.006;2023-06-19T00:13:13;99105.75;;;21.92;45.74
66430;BME280;53242;51.694;10.006;2023-06-19T00:15:36;99096.81;;;22.02;45.51
66430;BME280;53242;51.694;10.006;2023-06-19T00:17:58;99094.94;;;22.03;45.45
66430;BME280;53242;51.694;10.006;2023-06-19T00:20:21;99088.50;;;21.98;45.40
66430;BME280;53242;51.694;10.006;2023-06-19T00:22:44;99075.44;;;21.87;46.01
66430;BME280;53242;51.694;10.006;2023-06-19T00:25:06;99072.44;;;21.88;45.71
66430;BME280;53242;51.694;10.006;2023-06-19T00:27:29;99073.84;;;21.80;45.91
66430;BME280;53242;51.694;10.006;2023-06-19T00:29:51;99076.78;;;21.84;46.04
66430;BME280;53242;51.694;10.006;2023-06-19T00:32:15;99080.53;;;21.83;46.04
66430;BME280;53242;51.694;10.006;2023-06-19T00:34:38;99075.00;;;21.74;46.17
66430;BME280;53242;51.694;10.006;2023-06-19T00:37:00;99070.94;;;21.77;45.83
66430;BME280;53242;51.694;10.006;2023-06-19T00:39:23;99075.53;;;21.71;46.48
66430;BME280;53242;51.694;10.006;2023-06-19T00:41:46;99075.78;;;21.75;46.16
66430;BME280;53242;51.694;10.006;2023-06-19T00:44:10;99075.53;;;21.71;46.20
66430;BME280;53242;51.694;10.006;2023-06-19T00:46:32;99074.44;;;21.72;46.23
66430;BME280;53242;51.694;10.006;2023-06-19T00:48:57;99080.66;;;21.67;46.32
66430;BME280;53242;51.694;10.006;2023-06-19T00:51:19;99076.13;;;21.63;46.69
66430;BME280;53242;51.694;10.006;2023-06-19T00:53:42;99067.19;;;21.73;46.31
66430;BME280;53242;51.694;10.006;2023-06-19T00:56:05;99058.66;;;21.65;46.58
66430;BME280;53242;51.694;10.006;2023-06-19T00:58:27;99060.84;;;21.53;46.82
66430;BME280;53242;51.694;10.006;2023-06-19T01:00:52;99052.00;;;21.58;46.55
66430;BME280;53242;51.694;10.006;2023-06-19T01:03:15;99056.03;;;21.50;46.21
66430;BME280;53242;51.694;10.006;2023-06-19T01:05:38;99058.13;;;21.63;46.00
66430;BME280;53242;51.694;10.006;2023-06-19T01:08:06;99056.53;;;21.52;46.63
66430;BME280;53242;51.694;10.006;2023-06-19T01:10:35;99047.97;;;21.50;46.37
66430;BME280;53242;51.694;10.006;2023-06-19T01:13:01;99051.75;;;21.49;45.98
66430;BME280;53242;51.694;10.006;2023-06-19T01:15:25;99053.63;;;21.48;45.94
66430;BME280;53242;51.694;10.006;2023-06-19T01:17:48;99054.97;;;21.56;45.79
66430;BME280;53242;51.694;10.006;2023-06-19T01:20:11;99043.94;;;21.58;45.77
66430;BME280;53242;51.694;10.006;2023-06-19T01:22:34;99050.09;;;21.58;45.29
66430;BME280;53242;51.694;10.006;2023-06-19T01:24:57;99046.88;;;21.61;45.81
66430;BME280;53242;51.694;10.006;2023-06-19T01:27:20;99050.09;;;21.53;45.80
66430;BME280;53242;51.694;10.006;2023-06-19T01:29:43;99058.13;;;21.63;45.46
66430;BME280;53242;51.694;10.006;2023-06-19T01:32:14;99064.09;;;21.55;46.08
66430;BME280;53242;51.694;10.006;2023-06-19T01:34:37;99058.69;;;21.60;45.79
66430;BME280;53242;51.694;10.006;2023-06-19T01:37:00;99060.31;;;21.56;46.00
66430;BME280;53242;51.694;10.006;2023-06-19T01:39:24;99065.13;;;21.59;45.59
66430;BME280;53242;51.694;10.006;2023-06-19T01:41:47;99072.59;;;21.67;45.83
66430;BME280;53242;51.694;10.006;2023-06-19T01:44:10;99080.16;;;21.60;45.72
66430;BME280;53242;51.694;10.006;2023-06-19T01:46:33;99074.75;;;21.65;45.61
66430;BME280;53242;51.694;10.006;2023-06-19T01:48:55;99076.94;;;21.53;46.25
66430;BME280;53242;51.694;10.006;2023-06-19T01:51:18;99082.53;;;21.67;45.99
66430;BME280;53242;51.694;10.006;2023-06-19T01:53:40;99085.72;;;21.74;45.83
66430;BME280;53242;51.694;10.006;2023-06-19T01:56:03;99090.84;;;21.71;46.05
66430;BME280;53242;51.694;10.006;2023-06-19T01:58:26;99091.16;;;21.64;46.64
66430;BME280;53242;51.694;10.006;2023-06-19T02:00:48;99083.69;;;21.56;47.28
66430;BME280;53242;51.694;10.006;2023-06-19T02:03:12;99091.72;;;21.56;47.25
66430;BME280;53242;51.694;10.006;2023-06-19T02:05:34;99089.88;;;21.51;47.72
66430;BME280;53242;51.694;10.006;2023-06-19T02:08:01;99085.00;;;21.53;47.42
66430;BME280;53242;51.694;10.006;2023-06-19T02:10:23;99081.53;;;21.58;47.18
66430;BME280;53242;51.694;10.006;2023-06-19T02:12:46;99081.84;;;21.46;47.19
66430;BME280;53242;51.694;10.006;2023-06-19T02:15:09;99066.81;;;21.40;47.60
66430;BME280;53242;51.694;10.006;2023-06-19T02:17:31;99064.91;;;21.45;46.94
66430;BME280;53242;51.694;10.006;2023-06-19T02:19:53;99060.59;;;21.49;46.28
66430;BME280;53242;51.694;10.006;2023-06-19T02:22:17;99050.66;;;21.50;45.84
66430;BME280;53242;51.694;10.006;2023-06-19T02:24:40;99052.56;;;21.44;46.03
66430;BME280;53242;51.694;10.006;2023-06-19T02:27:02;99046.41;;;21.44;45.81
66430;BME280;53242;51.694;10.006;2023-06-19T02:29:25;99045.59;;;21.43;45.88
66430;BME280;53242;51.694;10.006;2023-06-19T02:31:47;99041.03;;;21.44;45.52
66430;BME280;53242;51.694;10.006;2023-06-19T02:34:10;99038.09;;;21.40;45.62
66430;BME280;53242;51.694;10.006;2023-06-19T02:36:32;99027.06;;;21.42;45.51
66430;BME280;53242;51.694;10.006;2023-06-19T02:38:55;99029.78;;;21.36;45.86
66430;BME280;53242;51.694;10.006;2023-06-19T02:41:17;99023.91;;;21.34;45.95
66430;BME280;53242;51.694;10.006;2023-06-19T02:43:42;99021.50;;;21.33;46.14
66430;BME280;53242;51.694;10.006;2023-06-19T02:46:06;99008.94;;;21.23;46.53
66430;BME280;53242;51.694;10.006;2023-06-19T02:48:30;99021.31;;;21.19;46.82
66430;BME280;53242;51.694;10.006;2023-06-19T02:50:52;99011.09;;;21.21;46.57
66430;BME280;53242;51.694;10.006;2023-06-19T02:53:14;99011.66;;;21.18;46.87
66430;BME280;53242;51.694;10.006;2023-06-19T02:55:39;99004.97;;;21.10;47.30
66430;BME280;53242;51.694;10.006;2023-06-19T02:58:01;99007.94;;;21.09;47.46
66430;BME280;53242;51.694;10.006;2023-06-19T03:00:23;98999.91;;;21.03;47.47
66430;BME280;53242;51.694;10.006;2023-06-19T03:02:46;99013.56;;;21.07;47.16
66430;BME280;53242;51.694;10.006;2023-06-19T03:05:12;99014.41;;;21.02;47.55
66430;BME280;53242;51.694;10.006;2023-06-19T03:07:35;99011.16;;;21.06;47.32
66430;BME280;53242;51.694;10.006;2023-06-19T03:09:58;99009.28;;;21.06;47.32
66430;BME280;53242;51.694;10.006;2023-06-19T03:12:21;99015.19;;;21.03;47.27
66430;BME280;53242;51.694;10.006;2023-06-19T03:14:43;99011.19;;;21.00;47.75
66430;BME280;53242;51.694;10.006;2023-06-19T03:17:06;99012.00;;;21.01;47.46
66430;BME280;53242;51.694;10.006;2023-06-19T03:19:28;99026.75;;;21.03;47.39
66430;BME280;53242;51.694;10.006;2023-06-19T03:21:51;99022.97;;;21.05;47.19
66430;BME280;53242;51.694;10.006;2023-06-19T03:24:13;99026.47;;;21.05;47.00
66430;BME280;53242;51.694;10.006;2023-06-19T03:26:36;99024.84;;;21.09;46.88
66430;BME280;53242;51.694;10.006;2023-06-19T03:28:59;99028.31;;;21.10;46.88
66430;BME280;53242;51.694;10.006;2023-06-19T03:31:24;99042.53;;;21.15;46.75
66430;BME280;53242;51.694;10.006;2023-06-19T03:33:46;99033.69;;;21.15;46.77
66430;BME280;53242;51.694;10.006;2023-06-19T03:36:09;99028.31;;;21.15;46.69
66430;BME280;53242;51.694;10.006;2023-06-19T03:38:44;99028.31;;;21.15;46.67
66430;BME280;53242;51.694;10.006;2023-06-19T03:41:09;99026.38;;;21.21;46.46
66430;BME280;53242;51.694;10.006;2023-06-19T03:43:32;99023.44;;;21.22;46.52
66430;BME280;53242;51.694;10.006;2023-06-19T03:45:55;99027.75;;;21.18;46.70
66430;BME280;53242;51.694;10.006;2023-06-19T03:48:17;99029.38;;;21.14;47.13
66430;BME280;53242;51.694;10.006;2023-06-19T03:50:40;99024.56;;;21.11;47.05
66430;BME280;53242;51.694;10.006;2023-06-19T03:53:03;99036.34;;;21.10;47.16
66430;BME280;53242;51.694;10.006;2023-06-19T03:55:26;99030.47;;;21.13;47.00
66430;BME280;53242;51.694;10.006;2023-06-19T03:57:49;99036.63;;;21.13;46.81
66430;BME280;53242;51.694;10.006;2023-06-19T04:00:13;99039.84;;;21.15;46.71
66430;BME280;53242;51.694;10.006;2023-06-19T04:02:37;99041.41;;;21.27;46.34
66430;BME280;53242;51.694;10.006;2023-06-19T04:05:00;99044.63;;;21.18;46.57
66430;BME280;53242;51.694;10.006;2023-06-19T04:07:22;99043.28;;;21.21;46.72
66430;BME280;53242;51.694;10.006;2023-06-19T04:09:44;99041.94;;;21.24;46.53
66430;BME280;53242;51.694;10.006;2023-06-19T04:12:07;99039.53;;;21.22;46.48
66430;BME280;53242;51.694;10.006;2023-06-19T04:14:30;99046.78;;;21.22;46.15
66430;BME280;53242;51.694;10.006;2023-06-19T04:16:53;99044.38;;;21.20;46.85
66430;BME280;53242;51.694;10.006;2023-06-19T04:19:15;99040.59;;;21.21;46.86
66430;BME280;53242;51.694;10.006;2023-06-19T04:21:38;99032.81;;;21.25;46.67
66430;BME280;53242;51.694;10.006;2023-06-19T04:24:01;99039.00;;;21.25;46.46
66430;BME280;53242;51.694;10.006;2023-06-19T04:26:28;99045.38;;;21.34;46.52
66430;BME280;53242;51.694;10.006;2023-06-19T04:28:50;99044.38;;;21.20;46.50
66430;BME280;53242;51.694;10.006;2023-06-19T04:31:12;99044.34;;;21.25;47.25
66430;BME280;53242;51.694;10.006;2023-06-19T04:33:40;99043.31;;;21.16;47.61
66430;BME280;53242;51.694;10.006;2023-06-19T04:36:04;99042.84;;;21.03;47.82
66430;BME280;53242;51.694;10.006;2023-06-19T04:38:26;99048.22;;;21.03;47.69
66430;BME280;53242;51.694;10.006;2023-06-19T04:40:51;99049.78;;;21.10;47.68
66430;BME280;53242;51.694;10.006;2023-06-19T04:43:14;99050.56;;;21.15;47.15
66430;BME280;53242;51.694;10.006;2023-06-19T04:45:36;99046.00;;;21.16;47.26
66430;BME280;53242;51.694;10.006;2023-06-19T04:47:58;99046.84;;;21.11;47.51
66430;BME280;53242;51.694;10.006;2023-06-19T04:50:25;99048.97;;;21.09;47.53
66430;BME280;53242;51.694;10.006;2023-06-19T04:52:47;99053.81;;;21.12;47.32
66430;BME280;53242;51.694;10.006;2023-06-19T04:55:12;99053.28;;;21.10;47.18
66430;BME280;53242;51.694;10.006;2023-06-19T04:57:37;99046.22;;;21.25;46.75
66430;BME280;53242;51.694;10.006;2023-06-19T05:00:00;99050.81;;;21.24;46.87
66430;BME280;53242;51.694;10.006;2023-06-19T05:02:22;99056.97;;;21.25;47.02
66430;BME280;53242;51.694;10.006;2023-06-19T05:04:46;99054.81;;;21.27;46.72
66430;BME280;53242;51.694;10.006;2023-06-19T05:07:09;99063.63;;;21.32;46.90
66430;BME280;53242;51.694;10.006;2023-06-19T05:09:32;99054.22;;;21.35;46.65
66430;BME280;53242;51.694;10.006;2023-06-19T05:11:57;99054.47;;;21.39;46.76
66430;BME280;53242;51.694;10.006;2023-06-19T05:14:19;99054.47;;;21.39;46.61
66430;BME280;53242;51.694;10.006;2023-06-19T05:16:42;99058.75;;;21.45;46.53
66430;BME280;53242;51.694;10.006;2023-06-19T05:19:04;99055.84;;;21.36;47.01
66430;BME280;53242;51.694;10.006;2023-06-19T05:21:27;99057.44;;;21.37;46.82
66430;BME280;53242;51.694;10.006;2023-06-19T05:23:50;99056.66;;;21.31;47.03
66430;BME280;53242;51.694;10.006;2023-06-19T05:26:13;99054.78;;;21.32;46.91
66430;BME280;53242;51.694;10.006;2023-06-19T05:28:36;99059.31;;;21.36;47.01
66430;BME280;53242;51.694;10.006;2023-06-19T05:30:58;99051.28;;;21.31;47.19
66430;BME280;53242;51.694;10.006;2023-06-19T05:33:21;99065.22;;;21.39;47.17
66430;BME280;53242;51.694;10.006;2023-06-19T05:35:45;99054.47;;;21.39;47.08
66430;BME280;53242;51.694;10.006;2023-06-19T05:38:14;99065.78;;;21.35;47.20
66430;BME280;53242;51.694;10.006;2023-06-19T05:40:37;99059.31;;;21.36;47.47
66430;BME280;53242;51.694;10.006;2023-06-19T05:42:59;99059.09;;;21.33;47.56
66430;BME280;53242;51.694;10.006;2023-06-19T05:45:22;99062.00;;;21.36;47.38
66430;BME280;53242;51.694;10.006;2023-06-19T05:47:44;99071.94;;;21.36;47.56
66430;BME280;53242;51.694;10.006;2023-06-19T05:50:07;99069.47;;;21.45;47.36
66430;BME280;53242;51.694;10.006;2023-06-19T05:52:29;99075.94;;;21.44;47.27
66430;BME280;53242;51.694;10.006;2023-06-19T05:54:52;99075.38;;;21.42;47.51
66430;BME280;53242;51.694;10.006;2023-06-19T05:57:15;99080.19;;;21.50;47.23
66430;BME280;53242;51.694;10.006;2023-06-19T05:59:41;99078.88;;;21.47;47.40
66430;BME280;53242;51.694;10.006;2023-06-19T06:02:04;99086.91;;;21.52;47.19
66430;BME280;53242;51.694;10.006;2023-06-19T06:04:26;99091.44;;;21.57;47.13
66430;BME280;53242;51.694;10.006;2023-06-19T06:06:48;99096.28;;;21.60;47.21
66430;BME280;53242;51.694;10.006;2023-06-19T06:09:11;99113.97;;;21.66;47.20
66430;BME280;53242;51.694;10.006;2023-06-19T06:11:34;99125.47;;;21.72;46.98
66430;BME280;53242;51.694;10.006;2023-06-19T06:13:56;99133.50;;;21.77;47.12
66430;BME280;53242;51.694;10.006;2023-06-19T06:16:19;99143.41;;;21.87;46.89
66430;BME280;53242;51.694;10.006;2023-06-19T06:18:41;99153.28;;;21.92;47.04
66430;BME280;53242;51.694;10.006;2023-06-19T06:21:03;99157.00;;;22.01;47.20
66430;BME280;53242;51.694;10.006;2023-06-19T06:23:26;99154.59;;;21.99;48.39
66430;BME280;53242;51.694;10.006;2023-06-19T06:25:49;99149.19;;;22.05;48.96
66430;BME280;53242;51.694;10.006;2023-06-19T06:28:11;99142.78;;;22.00;50.07
66430;BME280;53242;51.694;10.006;2023-06-19T06:30:34;99131.75;;;22.42;49.04
66430;BME280;53242;51.694;10.006;2023-06-19T06:32:56;99136.78;;;22.48;48.42
66430;BME280;53242;51.694;10.006;2023-06-19T06:35:19;99132.03;;;22.40;46.81
66430;BME280;53242;51.694;10.006;2023-06-19T06:37:41;99134.06;;;22.54;46.21
66430;BME280;53242;51.694;10.006;2023-06-19T06:40:05;99141.69;;;22.71;46.03
66430;BME280;53242;51.694;10.006;2023-06-19T06:42:31;99137.97;;;22.66;45.75
66430;BME280;53242;51.694;10.006;2023-06-19T06:44:53;99149.47;;;22.77;45.58
66430;BME280;53242;51.694;10.006;2023-06-19T06:47:16;99152.03;;;22.88;45.68
66430;BME280;53242;51.694;10.006;2023-06-19T06:49:38;99151.81;;;22.84;45.35
66430;BME280;53242;51.694;10.006;2023-06-19T06:52:01;99147.63;;;22.97;45.25
66430;BME280;53242;51.694;10.006;2023-06-19T06:54:23;99146.03;;;22.96;45.83
66430;BME280;53242;51.694;10.006;2023-06-19T06:56:46;99131.44;;;23.02;45.61
66430;BME280;53242;51.694;10.006;2023-06-19T06:59:10;99137.03;;;22.81;46.03
66430;BME280;53242;51.694;10.006;2023-06-19T07:01:32;99145.84;;;22.87;45.95
66430;BME280;53242;51.694;10.006;2023-06-19T07:03:54;99141.34;;;22.82;46.26
66430;BME280;53242;51.694;10.006;2023-06-19T07:06:17;99142.06;;;22.88;46.28
66430;BME280;53242;51.694;10.006;2023-06-19T07:08:39;99150.56;;;23.01;46.64
66430;BME280;53242;51.694;10.006;2023-06-19T07:11:03;99153.66;;;23.13;45.90
66430;BME280;53242;51.694;10.006;2023-06-19T07:13:25;99147.03;;;23.29;45.24
66430;BME280;53242;51.694;10.006;2023-06-19T07:15:47;99141.75;;;23.43;45.46
66430;BME280;53242;51.694;10.006;2023-06-19T07:18:10;99138.81;;;23.64;44.99
66430;BME280;53242;51.694;10.006;2023-06-19T07:20:32;99134.81;;;23.80;45.60
66430;BME280;53242;51.694;10.006;2023-06-19T07:22:55;99139.78;;;23.92;45.45
66430;BME280;53242;51.694;10.006;2023-06-19T07:25:17;99153.22;;;23.73;46.39
66430;BME280;53242;51.694;10.006;2023-06-19T07:27:40;99153.28;;;23.68;46.84
66430;BME280;53242;51.694;10.006;2023-06-19T07:30:03;99147.44;;;23.61;47.09
66430;BME280;53242;51.694;10.006;2023-06-19T07:32:25;99148.88;;;23.34;48.58
66430;BME280;53242;51.694;10.006;2023-06-19T07:34:48;99139.59;;;23.21;48.72
66430;BME280;53242;51.694;10.006;2023-06-19T07:37:10;99153.75;;;23.03;48.81
66430;BME280;53242;51.694;10.006;2023-06-19T07:39:39;99139.97;;;23.34;48.65
66430;BME280;53242;51.694;10.006;2023-06-19T07:42:01;99149.13;;;23.57;48.36
66430;BME280;53242;51.694;10.006;2023-06-19T07:44:24;99142.59;;;23.82;48.08
66430;BME280;53242;51.694;10.006;2023-06-19T07:46:46;99156.50;;;23.70;48.14
66430;BME280;53242;51.694;10.006;2023-06-19T07:49:09;99149.66;;;24.16;46.55
66430;BME280;53242;51.694;10.006;2023-06-19T07:51:31;99149.72;;;23.97;46.23
66430;BME280;53242;51.694;10.006;2023-06-19T07:53:53;99149.03;;;24.05;46.70
66430;BME280;53242;51.694;10.006;2023-06-19T07:56:16;99142.97;;;24.13;45.93
66430;BME280;53242;51.694;10.006;2023-06-19T07:58:38;99147.34;;;24.28;46.22
66430;BME280;53242;51.694;10.006;2023-06-19T08:01:01;99153.28;;;24.77;45.77
66430;BME280;53242;51.694;10.006;2023-06-19T08:03:23;99145.59;;;24.71;46.52
66430;BME280;53242;51.694;10.006;2023-06-19T08:05:46;99156.47;;;24.66;47.27
66430;BME280;53242;51.694;10.006;2023-06-19T08:08:08;99156.09;;;24.86;46.92
66430;BME280;53242;51.694;10.006;2023-06-19T08:10:31;99166.28;;;24.89;46.71
66430;BME280;53242;51.694;10.006;2023-06-19T08:12:53;99163.09;;;25.01;46.39
66430;BME280;53242;51.694;10.006;2023-06-19T08:15:16;99164.91;;;25.06;46.38
66430;BME280;53242;51.694;10.006;2023-06-19T08:17:38;99161.22;;;25.29;45.74
66430;BME280;53242;51.694;10.006;2023-06-19T08:20:01;99155.81;;;25.57;45.50
66430;BME280;53242;51.694;10.006;2023-06-19T08:22:25;99155.91;;;25.66;44.20
66430;BME280;53242;51.694;10.006;2023-06-19T08:24:47;99159.81;;;25.60;44.12
66430;BME280;53242;51.694;10.006;2023-06-19T08:27:09;99168.84;;;25.41;46.18
66430;BME280;53242;51.694;10.006;2023-06-19T08:29:32;99167.28;;;25.77;45.16
66430;BME280;53242;51.694;10.006;2023-06-19T08:31:54;99159.59;;;25.70;45.34
66430;BME280;53242;51.694;10.006;2023-06-19T08:34:17;99159.63;;;26.07;44.91
66430;BME280;53242;51.694;10.006;2023-06-19T08:36:39;99154.78;;;26.40;45.20
66430;BME280;53242;51.694;10.006;2023-06-19T08:39:02;99161.72;;;26.33;45.42
66430;BME280;53242;51.694;10.006;2023-06-19T08:41:25;99158.88;;;26.61;45.01
66430;BME280;53242;51.694;10.006;2023-06-19T08:43:47;99154.69;;;26.77;44.49
66430;BME280;53242;51.694;10.006;2023-06-19T08:46:11;99164.03;;;26.94;44.25
66430;BME280;53242;51.694;10.006;2023-06-19T08:48:35;99166.13;;;27.05;43.16
66430;BME280;53242;51.694;10.006;2023-06-19T08:50:58;99165.06;;;27.24;42.16
66430;BME280;53242;51.694;10.006;2023-06-19T08:53:20;99167.63;;;27.20;42.19
66430;BME280;53242;51.694;10.006;2023-06-19T08:55:43;99165.03;;;27.55;42.02
66430;BME280;53242;51.694;10.006;2023-06-19T08:58:05;99161.09;;;27.21;41.26
66430;BME280;53242;51.694;10.006;2023-06-19T09:00:29;99163.09;;;27.47;41.03
66430;BME280;53242;51.694;10.006;2023-06-19T09:02:59;99162.34;;;27.64;41.80
66430;BME280;53242;51.694;10.006;2023-06-19T09:05:23;99171.13;;;27.70;41.62
66430;BME280;53242;51.694;10.006;2023-06-19T09:07:54;99165.75;;;28.05;41.29
66430;BME280;53242;51.694;10.006;2023-06-19T09:10:18;99166.84;;;28.21;40.87
66430;BME280;53242;51.694;10.006;2023-06-19T09:12:43;99165.59;;;28.28;40.79
66430;BME280;53242;51.694;10.006;2023-06-19T09:15:14;99161.44;;;28.30;40.78
66430;BME280;53242;51.694;10.006;2023-06-19T09:17:37;99163.66;;;27.93;41.11
66430;BME280;53242;51.694;10.006;2023-06-19T09:20:09;99157.28;;;27.98;40.48
66430;BME280;53242;51.694;10.006;2023-06-19T09:22:33;99161.91;;;28.06;40.75
66430;BME280;53242;51.694;10.006;2023-06-19T09:25:00;99166.22;;;28.25;40.81
66430;BME280;53242;51.694;10.006;2023-06-19T09:27:22;99165.09;;;28.43;40.47
66430;BME280;53242;51.694;10.006;2023-06-19T09:29:49;99168.47;;;28.31;40.73
66430;BME280;53242;51.694;10.006;2023-06-19T09:32:25;99171.50;;;28.21;40.58
66430;BME280;53242;51.694;10.006;2023-06-19T09:34:51;99152.63;;;28.42;41.02
66430;BME280;53242;51.694;10.006;2023-06-19T09:37:14;99155.00;;;28.52;40.46
66430;BME280;53242;51.694;10.006;2023-06-19T09:39:38;99157.06;;;28.55;40.82
66430;BME280;53242;51.694;10.006;2023-06-19T09:42:01;99159.94;;;28.50;42.14
66430;BME280;53242;51.694;10.006;2023-06-19T09:44:26;99164.00;;;28.92;41.28
66430;BME280;53242;51.694;10.006;2023-06-19T09:46:49;99168.97;;;28.90;40.74
66430;BME280;53242;51.694;10.006;2023-06-19T09:49:14;99167.75;;;28.78;40.79
66430;BME280;53242;51.694;10.006;2023-06-19T09:51:41;99170.78;;;28.77;40.44
66430;BME280;53242;51.694;10.006;2023-06-19T09:54:05;99165.19;;;28.82;40.88
66430;BME280;53242;51.694;10.006;2023-06-19T09:56:28;99167.75;;;28.78;40.88
66430;BME280;53242;51.694;10.006;2023-06-19T09:58:55;99170.13;;;28.71;40.97
66430;BME280;53242;51.694;10.006;2023-06-19T10:01:18;99171.28;;;28.61;41.34
66430;BME280;53242;51.694;10.006;2023-06-19T10:03:41;99170.97;;;29.10;40.46
66430;BME280;53242;51.694;10.006;2023-06-19T10:06:04;99168.63;;;29.39;40.69
66430;BME280;53242;51.694;10.006;2023-06-19T10:08:31;99167.19;;;29.02;41.08
66430;BME280;53242;51.694;10.006;2023-06-19T10:10:55;99170.13;;;29.27;41.08
66430;BME280;53242;51.694;10.006;2023-06-19T10:13:17;99166.19;;;29.46;39.92
66430;BME280;53242;51.694;10.006;2023-06-19T10:15:41;99166.44;;;30.04;39.63
66430;BME280;53242;51.694;10.006;2023-06-19T10:18:06;99165.19;;;29.50;39.89
66430;BME280;53242;51.694;10.006;2023-06-19T10:20:34;99168.16;;;29.36;40.30
66430;BME280;53242;51.694;10.006;2023-06-19T10:25:38;99171.41;;;29.21;40.61
66430;BME280;53242;51.694;10.006;2023-06-19T10:28:01;99163.88;;;29.27;39.88
66430;BME280;53242;51.694;10.006;2023-06-19T10:30:24;99167.47;;;29.69;39.81
66430;BME280;53242;51.694;10.006;2023-06-19T10:32:47;99172.03;;;29.57;40.28
66430;BME280;53242;51.694;10.006;2023-06-19T10:35:13;99167.28;;;29.75;39.87
66430;BME280;53242;51.694;10.006;2023-06-19T10:37:36;99166.78;;;30.02;39.72
66430;BME280;53242;51.694;10.006;2023-06-19T10:39:58;99167.28;;;29.96;39.65
66430;BME280;53242;51.694;10.006;2023-06-19T10:42:21;99174.66;;;29.95;39.58
66430;BME280;53242;51.694;10.006;2023-06-19T10:44:43;99158.28;;;30.38;39.00
66430;BME280;53242;51.694;10.006;2023-06-19T10:47:06;99154.50;;;29.96;39.96
66430;BME280;53242;51.694;10.006;2023-06-19T10:49:29;99155.03;;;30.44;38.98
66430;BME280;53242;51.694;10.006;2023-06-19T10:51:51;99154.97;;;30.32;39.21
66430;BME280;53242;51.694;10.006;2023-06-19T10:54:19;99154.03;;;29.94;39.09
66430;BME280;53242;51.694;10.006;2023-06-19T10:56:41;99152.78;;;29.41;39.51
66430;BME280;53242;51.694;10.006;2023-06-19T10:59:07;99148.03;;;30.01;39.53
66430;BME280;53242;51.694;10.006;2023-06-19T11:01:38;99160.19;;;29.82;40.03
66430;BME280;53242;51.694;10.006;2023-06-19T11:04:03;99149.22;;;30.12;39.30
66430;BME280;53242;51.694;10.006;2023-06-19T11:06:25;99150.78;;;30.34;38.70
66430;BME280;53242;51.694;10.006;2023-06-19T11:08:51;99142.75;;;30.38;39.01
66430;BME280;53242;51.694;10.006;2023-06-19T11:11:14;99154.81;;;30.16;39.03
66430;BME280;53242;51.694;10.006;2023-06-19T11:13:37;99157.94;;;30.39;39.07
66430;BME280;53242;51.694;10.006;2023-06-19T11:16:00;99161.22;;;30.32;38.93
66430;BME280;53242;51.694;10.006;2023-06-19T11:18:22;99154.38;;;30.47;39.05
66430;BME280;53242;51.694;10.006;2023-06-19T11:20:50;99160.97;;;30.25;38.92
66430;BME280;53242;51.694;10.006;2023-06-19T11:23:13;99158.16;;;30.34;38.44
66430;BME280;53242;51.694;10.006;2023-06-19T11:25:39;99159.75;;;30.35;38.64
66430;BME280;53242;51.694;10.006;2023-06-19T11:28:02;99163.69;;;29.83;38.55
66430;BME280;53242;51.694;10.006;2023-06-19T11:30:31;99157.22;;;29.15;40.17
66430;BME280;53242;51.694;10.006;2023-06-19T11:32:54;99158.28;;;29.23;40.12
66430;BME280;53242;51.694;10.006;2023-06-19T11:35:16;99156.69;;;29.22;40.53
66430;BME280;53242;51.694;10.006;2023-06-19T11:37:43;99157.16;;;29.24;40.49
66430;BME280;53242;51.694;10.006;2023-06-19T11:40:09;99159.44;;;29.73;40.07
66430;BME280;53242;51.694;10.006;2023-06-19T11:42:48;99154.38;;;29.42;39.82
66430;BME280;53242;51.694;10.006;2023-06-19T11:45:11;99153.50;;;30.01;39.26
66430;BME280;53242;51.694;10.006;2023-06-19T11:47:34;99158.38;;;30.29;38.57
66430;BME280;53242;51.694;10.006;2023-06-19T11:49:56;99158.53;;;30.11;38.63
66430;BME280;53242;51.694;10.006;2023-06-19T11:52:19;99167.19;;;29.92;39.36
66430;BME280;53242;51.694;10.006;2023-06-19T11:54:42;99160.53;;;30.23;38.30
66430;BME280;53242;51.694;10.006;2023-06-19T11:57:05;99161.44;;;30.27;38.94
66430;BME280;53242;51.694;10.006;2023-06-19T11:59:27;99154.09;;;30.07;38.79
66430;BME280;53242;51.694;10.006;2023-06-19T12:01:50;99162.00;;;29.99;38.96
66430;BME280;53242;51.694;10.006;2023-06-19T12:04:12;99162.91;;;29.82;39.68
66430;BME280;53242;51.694;10.006;2023-06-19T12:06:35;99154.25;;;29.80;40.21
66430;BME280;53242;51.694;10.006;2023-06-19T12:08:59;99165.47;;;29.58;39.90
66430;BME280;53242;51.694;10.006;2023-06-19T12:11:21;99146.94;;;30.02;39.67
66430;BME280;53242;51.694;10.006;2023-06-19T12:13:44;99148.66;;;30.40;38.53
66430;BME280;53242;51.694;10.006;2023-06-19T12:16:07;99147.34;;;30.59;37.92
66430;BME280;53242;51.694;10.006;2023-06-19T12:18:30;99145.53;;;30.17;38.18
66430;BME280;53242;51.694;10.006;2023-06-19T12:20:52;99142.75;;;30.05;38.77
66430;BME280;53242;51.694;10.006;2023-06-19T12:23:15;99147.06;;;30.06;39.70
66430;BME280;53242;51.694;10.006;2023-06-19T12:25:37;99143.44;;;30.14;39.84
66430;BME280;53242;51.694;10.006;2023-06-19T12:27:59;99146.31;;;30.17;39.88
66430;BME280;53242;51.694;10.006;2023-06-19T12:30:22;99142.31;;;30.36;39.12
66430;BME280;53242;51.694;10.006;2023-06-19T12:32:45;99141.34;;;30.53;38.83